Time;durP1;ratioP1;P1;durP2;ratioP2;P2;SDS_P1;SDS_P2;PMS_P1;PMS_P2;Temp;Humidity;BMP_temperature;BMP_pressure;BME280_temperature;BME280_humidity;BME280_pressure;Samples;Min_cycle;Max_cycle;Signal;HPM_P1;HPM_P2
2024/02/06 00:00:14;;;;;;;14.63;7.30;;;;;;;;;;4999335;28;20115;-75
2024/02/06 00:02:40;;;;;;;11.13;7.15;;;;;;;;;;4997515;28;20412;-75
2024/02/06 00:05:07;;;;;;;14.40;6.95;;;;;;;;;;4987929;28;20059;-75
2024/02/06 00:07:37;;;;;;;13.50;6.88;;;;;;;;;;4999356;28;20124;-74
2024/02/06 00:10:04;;;;;;;14.68;7.70;;;;;;;;;;5001712;28;21036;-75
2024/02/06 00:12:30;;;;;;;14.63;7.20;;;;;;;;;;4992521;28;20594;-73
2024/02/06 00:14:57;;;;;;;11.32;7.28;;;;;;;;;;5005301;28;20318;-74
2024/02/06 00:17:23;;;;;;;16.13;8.20;;;;;;;;;;4990046;28;20494;-74
2024/02/06 00:19:49;;;;;;;16.30;8.10;;;;;;;;;;4987897;28;20057;-73
2024/02/06 00:22:16;;;;;;;13.88;7.85;;;;;;;;;;5009892;28;20458;-74
2024/02/06 00:24:43;;;;;;;11.30;7.38;;;;;;;;;;4994811;28;20493;-73
2024/02/06 00:27:09;;;;;;;16.30;7.40;;;;;;;;;;5001843;28;20038;-73
2024/02/06 00:29:35;;;;;;;16.45;7.72;;;;;;;;;;4983487;28;20047;-73
2024/02/06 00:32:03;;;;;;;17.05;8.43;;;;;;;;;;4998052;28;20056;-73
2024/02/06 00:34:29;;;;;;;15.25;7.78;;;;;;;;;;5006601;28;20072;-73
2024/02/06 00:36:56;;;;;;;15.18;7.25;;;;;;;;;;5002384;28;20046;-73
2024/02/06 00:39:22;;;;;;;13.75;8.13;;;;;;;;;;4987024;28;20049;-73
2024/02/06 00:41:49;;;;;;;14.18;7.72;;;;;;;;;;5001636;28;20052;-73
2024/02/06 00:44:17;;;;;;;14.43;7.57;;;;;;;;;;5009097;28;20054;-73
2024/02/06 00:46:43;;;;;;;13.85;8.48;;;;;;;;;;4996174;28;20060;-73
2024/02/06 00:49:09;;;;;;;14.55;9.68;;;;;;;;;;5003123;28;20135;-73
2024/02/06 00:51:36;;;;;;;14.00;8.23;;;;;;;;;;5008222;28;20125;-73
2024/02/06 00:54:03;;;;;;;18.23;9.25;;;;;;;;;;4998215;28;20054;-74
2024/02/06 00:56:30;;;;;;;15.55;8.75;;;;;;;;;;5008033;28;20137;-73
2024/02/06 00:58:56;;;;;;;18.02;9.15;;;;;;;;;;4987057;28;20042;-74
2024/02/06 01:01:23;;;;;;;13.02;8.93;;;;;;;;;;5008604;28;20057;-73
2024/02/06 01:03:49;;;;;;;13.65;9.10;;;;;;;;;;5004243;28;20068;-73
2024/02/06 01:06:16;;;;;;;15.93;9.25;;;;;;;;;;5001149;28;20053;-73
2024/02/06 01:08:42;;;;;;;20.63;9.23;;;;;;;;;;5004181;28;20807;-73
2024/02/06 01:11:09;;;;;;;15.45;8.48;;;;;;;;;;4987074;28;20054;-74
2024/02/06 01:13:36;;;;;;;14.98;8.80;;;;;;;;;;5002537;28;20550;-73
2024/02/06 01:16:03;;;;;;;16.83;8.98;;;;;;;;;;5008791;28;20470;-73
2024/02/06 01:18:30;;;;;;;16.38;9.07;;;;;;;;;;5003336;28;20133;-73
2024/02/06 01:20:56;;;;;;;14.73;8.35;;;;;;;;;;5006911;28;20073;-75
2024/02/06 01:23:23;;;;;;;13.57;7.60;;;;;;;;;;4997969;28;20045;-74
2024/02/06 01:25:49;;;;;;;15.82;8.52;;;;;;;;;;5008117;28;20052;-75
2024/02/06 01:28:15;;;;;;;17.42;8.55;;;;;;;;;;5007287;28;20384;-74
2024/02/06 01:30:42;;;;;;;15.25;8.32;;;;;;;;;;5005116;28;20049;-74
2024/02/06 01:33:08;;;;;;;17.58;8.02;;;;;;;;;;5003096;28;20523;-75
2024/02/06 01:35:35;;;;;;;15.30;7.40;;;;;;;;;;4981373;28;20096;-75
2024/02/06 01:38:01;;;;;;;14.48;7.82;;;;;;;;;;5005151;28;20057;-74
2024/02/06 01:40:28;;;;;;;16.80;8.07;;;;;;;;;;5002670;28;20069;-74
2024/02/06 01:42:55;;;;;;;19.00;8.25;;;;;;;;;;5005589;28;20049;-74
2024/02/06 01:45:21;;;;;;;16.35;6.75;;;;;;;;;;5007916;28;20081;-74
2024/02/06 01:47:48;;;;;;;16.35;8.90;;;;;;;;;;4998303;28;20108;-75
2024/02/06 01:50:14;;;;;;;18.63;7.30;;;;;;;;;;4982892;28;20128;-74
2024/02/06 01:52:41;;;;;;;13.05;7.28;;;;;;;;;;4997644;28;20073;-73
2024/02/06 01:55:08;;;;;;;16.80;8.20;;;;;;;;;;5005194;28;20058;-74
2024/02/06 01:57:36;;;;;;;19.88;7.80;;;;;;;;;;5007039;28;20059;-74
2024/02/06 02:00:03;;;;;;;15.30;7.57;;;;;;;;;;4977887;28;20105;-74
2024/02/06 02:02:30;;;;;;;12.63;6.43;;;;;;;;;;4988255;28;20448;-74
2024/02/06 02:04:56;;;;;;;13.35;6.97;;;;;;;;;;4999457;28;20570;-74
2024/02/06 02:07:25;;;;;;;12.30;7.60;;;;;;;;;;5006157;28;20502;-74
2024/02/06 02:09:52;;;;;;;14.75;6.75;;;;;;;;;;4997689;28;20065;-74
2024/02/06 02:12:18;;;;;;;12.00;5.95;;;;;;;;;;5005365;28;20133;-74
2024/02/06 02:14:45;;;;;;;17.38;7.07;;;;;;;;;;4989629;28;20068;-74
2024/02/06 02:17:11;;;;;;;15.38;7.05;;;;;;;;;;4997087;28;20444;-75
2024/02/06 02:19:39;;;;;;;13.15;6.80;;;;;;;;;;5003693;28;20057;-74
2024/02/06 02:22:06;;;;;;;14.85;6.03;;;;;;;;;;5002526;28;20100;-73
2024/02/06 02:24:34;;;;;;;15.70;6.90;;;;;;;;;;4995849;28;20352;-74
2024/02/06 02:27:01;;;;;;;17.83;5.78;;;;;;;;;;5006913;28;20412;-74
2024/02/06 02:29:28;;;;;;;14.75;5.53;;;;;;;;;;5001387;28;20054;-74
2024/02/06 02:31:56;;;;;;;14.93;5.63;;;;;;;;;;5001462;28;20050;-75
2024/02/06 02:34:23;;;;;;;13.43;5.77;;;;;;;;;;4998198;28;20060;-77
2024/02/06 02:36:49;;;;;;;13.70;5.95;;;;;;;;;;4999428;28;20050;-77
2024/02/06 02:39:15;;;;;;;17.52;5.07;;;;;;;;;;4995751;28;20046;-76
2024/02/06 02:41:42;;;;;;;14.15;4.25;;;;;;;;;;4994845;28;20764;-76
2024/02/06 02:44:08;;;;;;;14.32;5.47;;;;;;;;;;5003158;28;20053;-76
2024/02/06 02:46:35;;;;;;;10.90;4.70;;;;;;;;;;4994757;28;20082;-75
2024/02/06 02:49:01;;;;;;;10.00;4.13;;;;;;;;;;5004041;28;20064;-77
2024/02/06 02:51:28;;;;;;;16.67;5.93;;;;;;;;;;5000681;28;20095;-78
2024/02/06 02:53:54;;;;;;;11.77;4.03;;;;;;;;;;5002734;28;20073;-76
2024/02/06 02:56:21;;;;;;;11.50;4.70;;;;;;;;;;5005828;28;20131;-76
2024/02/06 02:58:48;;;;;;;10.23;4.35;;;;;;;;;;4980568;28;20108;-77
2024/02/06 03:01:15;;;;;;;15.45;5.05;;;;;;;;;;5004346;28;20053;-76
2024/02/06 03:03:41;;;;;;;10.60;4.28;;;;;;;;;;5000369;28;20124;-76
2024/02/06 03:06:08;;;;;;;12.38;4.20;;;;;;;;;;4994295;28;20762;-76
2024/02/06 03:08:34;;;;;;;17.08;5.45;;;;;;;;;;4999052;28;20567;-77
2024/02/06 03:11:01;;;;;;;12.63;5.13;;;;;;;;;;4999755;28;20081;-76
2024/02/06 03:13:27;;;;;;;15.00;4.43;;;;;;;;;;4984477;28;20053;-77
2024/02/06 03:15:55;;;;;;;14.23;5.05;;;;;;;;;;4995088;28;20080;-76
2024/02/06 03:18:22;;;;;;;13.55;4.60;;;;;;;;;;5004574;28;20576;-76
2024/02/06 03:20:49;;;;;;;12.45;5.22;;;;;;;;;;5004815;28;20049;-76
2024/02/06 03:23:16;;;;;;;17.77;5.22;;;;;;;;;;4999734;28;20693;-75
2024/02/06 03:25:43;;;;;;;14.82;4.80;;;;;;;;;;4975403;28;20046;-76
2024/02/06 03:28:09;;;;;;;13.98;5.43;;;;;;;;;;4995461;28;20085;-77
2024/02/06 03:30:36;;;;;;;11.32;4.15;;;;;;;;;;5001489;28;20399;-76
2024/02/06 03:33:03;;;;;;;16.27;5.15;;;;;;;;;;4976355;28;20057;-76
2024/02/06 03:35:30;;;;;;;17.10;5.00;;;;;;;;;;5003950;28;20126;-76
2024/02/06 03:37:57;;;;;;;14.13;5.10;;;;;;;;;;5001913;28;20060;-77
2024/02/06 03:40:23;;;;;;;15.55;5.60;;;;;;;;;;5000224;28;20057;-77
2024/02/06 03:42:49;;;;;;;14.93;4.85;;;;;;;;;;4998169;28;20928;-76
2024/02/06 03:45:16;;;;;;;15.93;6.07;;;;;;;;;;4997569;28;20147;-75
2024/02/06 03:47:42;;;;;;;15.88;5.30;;;;;;;;;;5005684;28;20479;-77
2024/02/06 03:50:09;;;;;;;15.82;6.53;;;;;;;;;;4991638;28;20049;-77
2024/02/06 03:52:36;;;;;;;12.25;5.57;;;;;;;;;;4999649;28;20078;-76
2024/02/06 03:55:02;;;;;;;12.23;6.00;;;;;;;;;;5003584;28;20052;-78
2024/02/06 03:57:29;;;;;;;18.75;7.82;;;;;;;;;;4981863;28;20470;-77
2024/02/06 03:59:55;;;;;;;13.60;6.15;;;;;;;;;;5006862;28;20058;-77
2024/02/06 04:02:21;;;;;;;21.10;7.25;;;;;;;;;;5008209;28;20176;-77
2024/02/06 04:04:48;;;;;;;17.92;6.57;;;;;;;;;;4997270;28;20096;-77
2024/02/06 04:07:15;;;;;;;13.68;6.82;;;;;;;;;;4990576;28;20046;-75
2024/02/06 04:09:42;;;;;;;22.30;7.13;;;;;;;;;;4998568;28;20045;-77
2024/02/06 04:12:08;;;;;;;12.30;6.47;;;;;;;;;;5004980;28;20468;-77
2024/02/06 04:14:35;;;;;;;17.77;6.65;;;;;;;;;;4985129;28;20057;-77
2024/02/06 04:17:02;;;;;;;14.27;6.65;;;;;;;;;;4990027;28;20042;-77
2024/02/06 04:19:28;;;;;;;16.25;6.95;;;;;;;;;;4990929;28;20541;-78
2024/02/06 04:21:55;;;;;;;18.38;7.35;;;;;;;;;;5002447;28;20073;-77
2024/02/06 04:24:21;;;;;;;17.58;6.25;;;;;;;;;;5000668;28;20065;-77
2024/02/06 04:26:48;;;;;;;14.00;6.38;;;;;;;;;;4998903;28;20418;-77
2024/02/06 04:29:14;;;;;;;18.88;7.25;;;;;;;;;;4991126;28;20058;-77
2024/02/06 04:31:41;;;;;;;15.43;6.28;;;;;;;;;;5007262;28;20047;-78
2024/02/06 04:34:07;;;;;;;11.88;6.43;;;;;;;;;;4998174;28;20399;-76
2024/02/06 04:36:35;;;;;;;13.73;5.82;;;;;;;;;;4991093;28;20384;-77
2024/02/06 04:39:01;;;;;;;20.92;7.03;;;;;;;;;;4988639;28;20152;-76
2024/02/06 04:41:28;;;;;;;14.00;6.63;;;;;;;;;;5007894;28;20104;-76
2024/02/06 04:43:54;;;;;;;16.42;7.05;;;;;;;;;;4980389;28;20048;-75
2024/02/06 04:46:20;;;;;;;14.32;6.68;;;;;;;;;;5004682;28;20050;-76
2024/02/06 04:48:47;;;;;;;11.23;6.80;;;;;;;;;;5007372;28;20046;-77
2024/02/06 04:51:13;;;;;;;16.17;6.40;;;;;;;;;;4998183;28;20125;-73
2024/02/06 04:53:40;;;;;;;13.68;6.15;;;;;;;;;;5002037;28;20674;-73
2024/02/06 04:56:07;;;;;;;12.77;5.95;;;;;;;;;;4987192;28;20377;-73
2024/02/06 04:58:33;;;;;;;14.15;5.93;;;;;;;;;;4989502;28;20136;-73
2024/02/06 05:01:00;;;;;;;18.05;6.47;;;;;;;;;;5009645;28;20077;-73
2024/02/06 05:03:27;;;;;;;15.20;6.60;;;;;;;;;;4987917;28;20050;-73
2024/02/06 05:05:53;;;;;;;14.27;6.00;;;;;;;;;;5008996;28;20041;-73
2024/02/06 05:08:19;;;;;;;16.98;6.32;;;;;;;;;;5004907;28;20054;-73
2024/02/06 05:10:47;;;;;;;17.40;6.20;;;;;;;;;;5009709;28;20049;-74
2024/02/06 05:13:14;;;;;;;15.53;6.67;;;;;;;;;;5010847;28;20131;-73
2024/02/06 05:15:41;;;;;;;20.83;7.45;;;;;;;;;;5003970;28;20050;-73
2024/02/06 05:18:07;;;;;;;17.88;6.35;;;;;;;;;;4985813;28;20136;-74
2024/02/06 05:20:34;;;;;;;17.75;6.47;;;;;;;;;;4986294;28;20050;-73
2024/02/06 05:23:00;;;;;;;13.68;6.05;;;;;;;;;;5006278;28;20054;-73
2024/02/06 05:25:27;;;;;;;17.77;7.20;;;;;;;;;;4990185;28;20510;-73
2024/02/06 05:27:53;;;;;;;17.40;6.32;;;;;;;;;;5004126;28;20409;-72
2024/02/06 05:30:20;;;;;;;12.55;6.25;;;;;;;;;;4989572;28;20057;-73
2024/02/06 05:32:46;;;;;;;15.05;6.72;;;;;;;;;;4990026;28;20058;-73
2024/02/06 05:35:13;;;;;;;16.77;6.32;;;;;;;;;;5005694;28;20051;-73
2024/02/06 05:37:40;;;;;;;16.50;6.72;;;;;;;;;;5003847;28;20139;-73
2024/02/06 05:40:11;;;;;;;19.48;6.88;;;;;;;;;;5010262;28;20108;-73
2024/02/06 05:42:38;;;;;;;19.83;8.80;;;;;;;;;;4984951;28;20515;-73
2024/02/06 05:45:06;;;;;;;16.30;7.20;;;;;;;;;;5006007;28;20101;-73
2024/02/06 05:47:32;;;;;;;16.48;8.32;;;;;;;;;;5007872;28;20096;-72
2024/02/06 05:49:59;;;;;;;17.70;8.18;;;;;;;;;;5007076;28;20073;-73
2024/02/06 05:52:25;;;;;;;13.85;7.40;;;;;;;;;;4985825;28;20054;-73
2024/02/06 05:54:52;;;;;;;19.00;7.40;;;;;;;;;;4984546;28;20046;-74
2024/02/06 05:57:19;;;;;;;12.50;8.05;;;;;;;;;;4988607;28;20038;-73
2024/02/06 05:59:45;;;;;;;12.93;8.05;;;;;;;;;;5004262;28;20415;-74
2024/02/06 06:02:12;;;;;;;18.20;8.43;;;;;;;;;;4983060;28;20046;-76
2024/02/06 06:04:38;;;;;;;15.68;8.18;;;;;;;;;;5001281;28;20061;-76
2024/02/06 06:07:05;;;;;;;14.13;7.63;;;;;;;;;;5003498;28;20053;-76
2024/02/06 06:09:31;;;;;;;18.25;7.70;;;;;;;;;;5004142;28;20116;-76
2024/02/06 06:11:57;;;;;;;19.77;7.82;;;;;;;;;;4985974;28;20156;-75
2024/02/06 06:14:24;;;;;;;13.80;8.05;;;;;;;;;;4989861;28;20173;-75
2024/02/06 06:16:50;;;;;;;15.98;7.70;;;;;;;;;;4986851;28;20052;-75
2024/02/06 06:19:16;;;;;;;19.48;7.80;;;;;;;;;;4988313;28;20141;-75
2024/02/06 06:21:43;;;;;;;16.98;8.15;;;;;;;;;;5006447;28;20392;-75
2024/02/06 06:24:10;;;;;;;13.73;8.05;;;;;;;;;;5006328;28;20050;-74
2024/02/06 06:26:37;;;;;;;14.88;7.15;;;;;;;;;;4996823;28;20454;-74
2024/02/06 06:29:04;;;;;;;16.45;7.68;;;;;;;;;;5002283;28;20050;-75
2024/02/06 06:31:30;;;;;;;16.83;7.80;;;;;;;;;;4999601;28;20418;-75
2024/02/06 06:33:56;;;;;;;17.00;7.32;;;;;;;;;;4994230;28;20136;-75
2024/02/06 06:36:24;;;;;;;15.93;8.10;;;;;;;;;;4986882;28;20048;-75
2024/02/06 06:38:50;;;;;;;14.57;7.57;;;;;;;;;;4995105;28;20045;-75
2024/02/06 06:41:17;;;;;;;14.95;8.00;;;;;;;;;;4998048;28;20133;-74
2024/02/06 06:43:44;;;;;;;17.20;7.32;;;;;;;;;;4997316;28;20104;-75
2024/02/06 06:46:11;;;;;;;21.73;8.20;;;;;;;;;;5004905;28;20137;-75
2024/02/06 06:48:37;;;;;;;19.70;7.40;;;;;;;;;;4997858;28;20148;-74
2024/02/06 06:51:04;;;;;;;11.00;6.95;;;;;;;;;;4996471;28;20631;-75
2024/02/06 06:53:30;;;;;;;17.75;7.32;;;;;;;;;;4997858;28;20058;-75
2024/02/06 06:55:56;;;;;;;19.23;7.25;;;;;;;;;;4996460;28;20058;-75
2024/02/06 06:58:23;;;;;;;18.27;7.85;;;;;;;;;;4981980;28;20055;-75
2024/02/06 07:00:50;;;;;;;20.15;6.72;;;;;;;;;;4981574;28;20735;-76
2024/02/06 07:03:16;;;;;;;25.00;9.30;;;;;;;;;;5002181;28;20503;-74
2024/02/06 07:05:44;;;;;;;14.13;6.65;;;;;;;;;;4985323;28;20092;-75
2024/02/06 07:08:10;;;;;;;19.30;7.15;;;;;;;;;;4994063;28;20075;-76
2024/02/06 07:10:37;;;;;;;19.67;5.97;;;;;;;;;;5002295;28;20407;-76
2024/02/06 07:13:03;;;;;;;13.70;5.63;;;;;;;;;;4997952;28;20542;-72
2024/02/06 07:15:30;;;;;;;18.30;6.63;;;;;;;;;;4989748;28;20051;-72
2024/02/06 07:17:56;;;;;;;14.63;6.63;;;;;;;;;;4987744;28;20212;-73
2024/02/06 07:20:23;;;;;;;15.98;6.25;;;;;;;;;;5004863;28;20137;-73
2024/02/06 07:22:49;;;;;;;18.42;6.07;;;;;;;;;;5007086;28;20338;-72
2024/02/06 07:25:16;;;;;;;14.38;6.05;;;;;;;;;;4985378;28;20045;-73
2024/02/06 07:27:42;;;;;;;16.60;5.70;;;;;;;;;;5010477;28;20133;-73
2024/02/06 07:30:09;;;;;;;12.35;6.07;;;;;;;;;;5006592;28;20133;-73
2024/02/06 07:32:37;;;;;;;;;;;;;;;;;;5010455;28;20042;-75
2024/02/06 07:35:07;;;;;;;16.85;5.65;;;;;;;;;;5009995;28;19925;-73
2024/02/06 07:37:33;;;;;;;17.40;5.97;;;;;;;;;;5002832;28;20133;-72
2024/02/06 07:40:00;;;;;;;21.10;6.80;;;;;;;;;;4999717;28;20046;-72
2024/02/06 07:42:27;;;;;;;16.60;5.95;;;;;;;;;;4986310;28;20060;-72
2024/02/06 07:44:53;;;;;;;16.92;7.00;;;;;;;;;;5009948;28;20058;-73
2024/02/06 07:47:19;;;;;;;14.15;6.45;;;;;;;;;;4992867;28;20109;-72
2024/02/06 07:49:46;;;;;;;15.48;6.97;;;;;;;;;;5004208;28;20626;-73
2024/02/06 07:52:13;;;;;;;20.83;7.05;;;;;;;;;;5005957;28;20054;-73
2024/02/06 07:54:39;;;;;;;13.52;6.80;;;;;;;;;;4995227;28;20042;-72
2024/02/06 07:57:06;;;;;;;14.77;7.43;;;;;;;;;;5009192;28;20100;-72
2024/02/06 07:59:32;;;;;;;18.77;7.97;;;;;;;;;;5004165;28;20443;-74
2024/02/06 08:01:59;;;;;;;14.07;6.93;;;;;;;;;;5006272;28;20077;-73
2024/02/06 08:04:25;;;;;;;16.42;7.10;;;;;;;;;;5007991;28;20484;-73
2024/02/06 08:06:52;;;;;;;18.35;7.60;;;;;;;;;;4998910;28;20136;-73
2024/02/06 08:09:20;;;;;;;19.92;7.93;;;;;;;;;;4988075;28;20529;-73
2024/02/06 08:11:46;;;;;;;18.98;7.22;;;;;;;;;;4985362;28;20042;-74
2024/02/06 08:14:13;;;;;;;19.85;8.30;;;;;;;;;;5002452;28;20131;-73
2024/02/06 08:16:40;;;;;;;19.42;6.68;;;;;;;;;;5009051;28;20045;-74
2024/02/06 08:19:08;;;;;;;16.48;6.93;;;;;;;;;;4981992;28;20693;-73
2024/02/06 08:21:35;;;;;;;16.05;6.57;;;;;;;;;;4999895;28;20145;-74
2024/02/06 08:24:02;;;;;;;11.18;6.05;;;;;;;;;;4978320;28;20515;-74
2024/02/06 08:26:28;;;;;;;17.60;6.63;;;;;;;;;;5006465;28;20049;-73
2024/02/06 08:28:54;;;;;;;20.23;6.50;;;;;;;;;;4998330;28;20046;-74
2024/02/06 08:31:22;;;;;;;15.88;6.72;;;;;;;;;;4976718;28;20054;-73
2024/02/06 08:33:50;;;;;;;11.98;5.88;;;;;;;;;;4988964;28;20056;-75
2024/02/06 08:36:17;;;;;;;19.08;6.18;;;;;;;;;;4983054;28;20054;-72
2024/02/06 08:38:44;;;;;;;14.45;6.95;;;;;;;;;;4995695;28;20042;-73
2024/02/06 08:41:11;;;;;;;24.90;7.50;;;;;;;;;;5004128;28;20061;-73
2024/02/06 08:43:37;;;;;;;18.33;5.63;;;;;;;;;;4983532;28;20415;-73
2024/02/06 08:46:18;;;;;;;19.25;6.25;;;;;;;;;;4994099;28;20546;-73
2024/02/06 08:48:44;;;;;;;21.48;6.40;;;;;;;;;;5001214;28;20081;-74
2024/02/06 08:51:10;;;;;;;22.20;7.80;;;;;;;;;;5005035;28;20393;-73
2024/02/06 08:53:37;;;;;;;18.60;6.40;;;;;;;;;;5002255;28;20518;-74
2024/02/06 08:56:03;;;;;;;17.30;6.53;;;;;;;;;;5008686;28;20105;-73
2024/02/06 08:58:30;;;;;;;16.55;6.28;;;;;;;;;;4986307;28;20046;-72
2024/02/06 09:00:56;;;;;;;19.63;6.38;;;;;;;;;;4996978;28;20077;-73
2024/02/06 09:03:23;;;;;;;22.10;6.13;;;;;;;;;;5004331;28;20462;-74
2024/02/06 09:05:50;;;;;;;15.90;5.53;;;;;;;;;;4980417;28;20084;-74
2024/02/06 09:08:17;;;;;;;18.13;5.78;;;;;;;;;;5006142;28;20463;-73
2024/02/06 09:10:46;;;;;;;18.40;6.00;;;;;;;;;;4992829;28;20041;-73
2024/02/06 09:13:12;;;;;;;20.17;5.07;;;;;;;;;;5005976;28;20612;-73
2024/02/06 09:15:39;;;;;;;19.00;5.93;;;;;;;;;;5007271;28;20046;-74
2024/02/06 09:18:06;;;;;;;13.77;5.68;;;;;;;;;;4998400;28;20058;-74
2024/02/06 09:20:33;;;;;;;14.25;5.45;;;;;;;;;;4989751;28;20046;-74
2024/02/06 09:23:03;;;;;;;18.73;5.35;;;;;;;;;;5001429;28;20054;-73
2024/02/06 09:25:30;;;;;;;15.95;5.43;;;;;;;;;;5007924;28;20049;-74
2024/02/06 09:27:56;;;;;;;11.15;4.78;;;;;;;;;;5001267;28;20754;-73
2024/02/06 09:30:23;;;;;;;19.00;5.07;;;;;;;;;;4984909;28;20134;-73
2024/02/06 09:32:50;;;;;;;16.75;5.60;;;;;;;;;;5003606;28;20058;-75
2024/02/06 09:35:16;;;;;;;15.45;4.82;;;;;;;;;;5001175;28;20049;-76
2024/02/06 09:37:43;;;;;;;16.15;5.10;;;;;;;;;;4983130;28;20129;-76
2024/02/06 09:40:10;;;;;;;20.77;5.18;;;;;;;;;;4993446;28;20141;-76
2024/02/06 09:42:36;;;;;;;16.58;4.70;;;;;;;;;;5006070;28;20049;-76
2024/02/06 09:45:04;;;;;;;13.55;4.53;;;;;;;;;;4991624;28;20098;-75
2024/02/06 09:47:30;;;;;;;20.33;4.75;;;;;;;;;;4995876;28;20054;-76
2024/02/06 09:49:57;;;;;;;17.10;4.07;;;;;;;;;;5006337;28;20558;-75
2024/02/06 09:52:25;;;;;;;17.23;3.58;;;;;;;;;;5001118;28;20077;-77
2024/02/06 09:54:52;;;;;;;12.45;3.53;;;;;;;;;;5005906;28;20042;-76
2024/02/06 09:57:21;;;;;;;22.13;4.55;;;;;;;;;;5005354;28;20042;-76
2024/02/06 09:59:50;;;;;;;11.63;3.58;;;;;;;;;;4984484;28;20050;-76
2024/02/06 10:02:17;;;;;;;12.60;3.50;;;;;;;;;;4984776;28;20049;-77
2024/02/06 10:04:44;;;;;;;15.48;3.47;;;;;;;;;;5000177;28;20112;-76
2024/02/06 10:07:11;;;;;;;13.43;3.60;;;;;;;;;;4988349;28;20408;-77
2024/02/06 10:09:39;;;;;;;9.73;3.33;;;;;;;;;;5001090;28;20447;-75
2024/02/06 10:12:06;;;;;;;13.18;3.45;;;;;;;;;;5005212;28;20316;-76
2024/02/06 10:14:34;;;;;;;8.75;3.30;;;;;;;;;;4990603;28;20065;-76
2024/02/06 10:17:02;;;;;;;11.82;3.75;;;;;;;;;;4979191;28;20054;-76
2024/02/06 10:19:32;;;;;;;12.88;4.05;;;;;;;;;;4992798;28;20057;-76
2024/02/06 10:21:59;;;;;;;10.38;3.97;;;;;;;;;;4981924;28;20056;-75
2024/02/06 10:24:25;;;;;;;11.82;4.70;;;;;;;;;;4991351;28;20053;-76
2024/02/06 10:27:02;;;;;;;12.18;4.72;;;;;;;;;;5005342;28;20146;-76
2024/02/06 10:29:29;;;;;;;11.88;4.75;;;;;;;;;;4977202;28;20061;-76
2024/02/06 10:31:58;;;;;;;10.50;5.00;;;;;;;;;;4999511;28;20049;-76
2024/02/06 10:34:25;;;;;;;;;;;;;;;;;;4997028;28;20081;-75
2024/02/06 10:36:58;;;;;;;13.43;5.30;;;;;;;;;;5004956;28;19926;-80
2024/02/06 10:39:28;;;;;;;12.57;4.75;;;;;;;;;;5001485;28;20042;-77
2024/02/06 10:41:59;;;;;;;15.52;6.28;;;;;;;;;;4987133;28;20042;-74
2024/02/06 10:44:46;;;;;;;12.70;5.25;;;;;;;;;;5004715;28;20126;-74
2024/02/06 10:47:15;;;;;;;11.80;5.20;;;;;;;;;;4986496;28;20057;-74
2024/02/06 10:49:42;;;;;;;13.07;4.93;;;;;;;;;;4988275;28;20084;-74
2024/02/06 10:52:08;;;;;;;12.30;4.50;;;;;;;;;;5001275;28;20495;-74
2024/02/06 10:54:35;;;;;;;15.23;4.97;;;;;;;;;;4986418;28;20141;-75
2024/02/06 10:57:03;;;;;;;17.20;5.30;;;;;;;;;;5000476;28;20120;-74
2024/02/06 10:59:33;;;;;;;13.97;5.03;;;;;;;;;;4982252;28;20057;-74
2024/02/06 11:02:01;;;;;;;15.85;5.07;;;;;;;;;;5006259;28;20100;-75
2024/02/06 11:04:29;;;;;;;18.42;5.63;;;;;;;;;;4984984;28;20132;-74
2024/02/06 11:07:05;;;;;;;23.52;5.75;;;;;;;;;;5007315;28;20050;-74
2024/02/06 11:09:37;;;;;;;11.15;3.63;;;;;;;;;;5005305;28;20219;-75
2024/02/06 11:12:03;;;;;;;16.17;3.67;;;;;;;;;;4983589;28;20058;-74
2024/02/06 11:14:30;;;;;;;16.73;4.03;;;;;;;;;;4987434;28;20104;-75
2024/02/06 11:16:57;;;;;;;15.63;4.30;;;;;;;;;;5001844;28;20049;-74
2024/02/06 11:19:29;;;;;;;10.43;3.85;;;;;;;;;;5008303;28;20050;-75
2024/02/06 11:22:06;;;;;;;11.88;3.88;;;;;;;;;;4986772;28;20177;-74
2024/02/06 11:24:33;;;;;;;22.58;4.72;;;;;;;;;;4991859;28;20137;-74
2024/02/06 11:27:00;;;;;;;16.33;3.80;;;;;;;;;;4988311;28;20453;-75
2024/02/06 11:29:27;;;;;;;12.65;4.43;;;;;;;;;;5004309;28;20054;-74
2024/02/06 11:31:54;;;;;;;13.68;4.88;;;;;;;;;;4984121;28;20128;-75
2024/02/06 11:34:22;;;;;;;14.23;4.57;;;;;;;;;;5005156;28;20112;-74
2024/02/06 11:36:49;;;;;;;18.15;4.32;;;;;;;;;;5009154;28;20038;-74
2024/02/06 11:39:15;;;;;;;16.48;4.22;;;;;;;;;;5002311;28;20057;-74
2024/02/06 11:41:45;;;;;;;9.93;3.90;;;;;;;;;;5004813;28;20041;-74
2024/02/06 11:44:12;;;;;;;14.50;4.63;;;;;;;;;;4989811;28;20074;-74
2024/02/06 11:46:42;;;;;;;18.58;4.10;;;;;;;;;;4995119;28;20484;-74
2024/02/06 11:49:09;;;;;;;12.18;4.45;;;;;;;;;;5004405;28;20042;-74
2024/02/06 11:51:36;;;;;;;10.13;3.95;;;;;;;;;;4989652;28;20058;-74
2024/02/06 11:54:12;;;;;;;16.35;4.15;;;;;;;;;;5003166;28;20054;-74
2024/02/06 11:56:39;;;;;;;13.07;4.45;;;;;;;;;;5004595;28;20042;-74
2024/02/06 11:59:06;;;;;;;15.82;3.60;;;;;;;;;;4990058;28;20065;-73
2024/02/06 12:01:33;;;;;;;9.85;3.35;;;;;;;;;;5009581;28;20050;-74
2024/02/06 12:04:05;;;;;;;10.15;2.63;;;;;;;;;;4968855;28;20046;-73
2024/02/06 12:06:32;;;;;;;9.20;2.40;;;;;;;;;;4985987;28;20128;-74
2024/02/06 12:09:06;;;;;;;8.48;2.40;;;;;;;;;;4983467;28;20056;-74
2024/02/06 12:11:41;;;;;;;8.32;2.80;;;;;;;;;;5012119;28;20061;-73
2024/02/06 12:14:11;;;;;;;7.57;2.55;;;;;;;;;;4990529;28;20077;-73
2024/02/06 12:16:39;;;;;;;11.48;2.70;;;;;;;;;;5004848;28;20081;-74
2024/02/06 12:19:06;;;;;;;8.23;2.53;;;;;;;;;;5012242;28;20672;-73
2024/02/06 12:21:34;;;;;;;11.05;3.38;;;;;;;;;;5006597;28;20133;-74
2024/02/06 12:24:02;;;;;;;5.97;2.97;;;;;;;;;;4984413;28;20140;-74
2024/02/06 12:26:29;;;;;;;9.13;2.83;;;;;;;;;;5005601;28;20070;-74
2024/02/06 12:29:05;;;;;;;11.52;2.80;;;;;;;;;;4989303;28;20100;-74
2024/02/06 12:31:33;;;;;;;9.18;2.47;;;;;;;;;;5000953;28;20048;-74
2024/02/06 12:34:01;;;;;;;11.15;3.58;;;;;;;;;;4980178;28;20052;-74
2024/02/06 12:36:27;;;;;;;13.85;4.53;;;;;;;;;;5010256;28;20050;-74
2024/02/06 12:38:55;;;;;;;16.05;3.58;;;;;;;;;;4993641;28;20054;-75
2024/02/06 12:41:26;;;;;;;10.45;3.65;;;;;;;;;;5013081;28;20821;-73
2024/02/06 12:43:53;;;;;;;8.55;3.15;;;;;;;;;;4994879;28;20483;-73
2024/02/06 12:46:20;;;;;;;11.95;3.38;;;;;;;;;;5007797;28;20476;-74
2024/02/06 12:48:47;;;;;;;12.85;3.53;;;;;;;;;;5010801;28;20091;-74
2024/02/06 12:51:14;;;;;;;12.35;3.10;;;;;;;;;;4994884;28;20136;-74
2024/02/06 12:53:40;;;;;;;11.35;3.63;;;;;;;;;;5010113;28;20042;-75
2024/02/06 12:56:07;;;;;;;10.65;2.58;;;;;;;;;;4999595;28;20049;-73
2024/02/06 12:58:34;;;;;;;14.02;2.83;;;;;;;;;;4974765;28;20140;-74
2024/02/06 13:01:01;;;;;;;12.88;2.53;;;;;;;;;;4993879;28;20064;-76
2024/02/06 13:03:40;;;;;;;15.25;3.28;;;;;;;;;;4999838;28;20050;-76
2024/02/06 13:06:08;;;;;;;11.05;2.65;;;;;;;;;;5008186;28;20108;-77
2024/02/06 13:08:53;;;;;;;8.73;2.70;;;;;;;;;;4982255;28;20060;-77
2024/02/06 13:11:20;;;;;;;10.88;2.75;;;;;;;;;;5007052;28;20411;-77
2024/02/06 13:13:52;;;;;;;11.95;3.35;;;;;;;;;;5002198;28;20677;-77
2024/02/06 13:16:19;;;;;;;14.27;2.60;;;;;;;;;;4983202;28;20058;-79
2024/02/06 13:18:54;;;;;;;17.13;3.30;;;;;;;;;;4988057;28;20054;-76
2024/02/06 13:21:20;;;;;;;11.00;2.78;;;;;;;;;;5001396;28;20058;-78
2024/02/06 13:23:47;;;;;;;13.57;3.70;;;;;;;;;;4987365;28;20050;-79
2024/02/06 13:26:13;;;;;;;11.90;2.65;;;;;;;;;;5000365;28;20669;-79
2024/02/06 13:28:45;;;;;;;15.55;2.45;;;;;;;;;;5002482;28;20172;-76
2024/02/06 13:31:12;;;;;;;14.88;2.90;;;;;;;;;;4985805;28;20476;-79
2024/02/06 13:33:49;;;;;;;10.85;2.22;;;;;;;;;;4996983;28;20133;-78
2024/02/06 13:36:16;;;;;;;15.00;2.42;;;;;;;;;;5005581;28;20052;-76
2024/02/06 13:38:43;;;;;;;13.80;2.53;;;;;;;;;;5000869;28;20045;-77
2024/02/06 13:41:10;;;;;;;13.57;2.92;;;;;;;;;;5005505;28;20050;-78
2024/02/06 13:43:37;;;;;;;17.70;3.08;;;;;;;;;;5000868;28;20104;-78
2024/02/06 13:46:04;;;;;;;12.13;2.47;;;;;;;;;;4992974;28;20613;-79
2024/02/06 13:48:31;;;;;;;9.15;2.30;;;;;;;;;;4987750;28;20427;-78
2024/02/06 13:50:58;;;;;;;13.23;2.33;;;;;;;;;;5000633;28;20054;-76
2024/02/06 13:53:24;;;;;;;12.18;2.47;;;;;;;;;;5006946;28;20380;-76
2024/02/06 13:55:51;;;;;;;12.00;2.97;;;;;;;;;;4982372;28;20392;-76
2024/02/06 13:58:18;;;;;;;12.80;2.30;;;;;;;;;;4982487;28;20152;-75
2024/02/06 14:00:44;;;;;;;13.95;2.60;;;;;;;;;;5005539;28;20057;-80
2024/02/06 14:03:10;;;;;;;18.08;2.92;;;;;;;;;;4982259;28;20050;-79
2024/02/06 14:05:38;;;;;;;12.02;2.78;;;;;;;;;;4992520;28;20137;-80
2024/02/06 14:08:05;;;;;;;12.90;2.70;;;;;;;;;;4983944;28;20085;-77
2024/02/06 14:10:31;;;;;;;11.85;2.72;;;;;;;;;;5002753;28;20050;-77
2024/02/06 14:12:58;;;;;;;16.13;3.10;;;;;;;;;;5002671;28;20053;-78
2024/02/06 14:15:24;;;;;;;19.30;3.40;;;;;;;;;;5000360;28;20058;-78
2024/02/06 14:17:51;;;;;;;16.08;3.10;;;;;;;;;;5005426;28;20057;-78
2024/02/06 14:20:18;;;;;;;11.15;2.30;;;;;;;;;;5000706;28;20054;-78
2024/02/06 14:22:46;;;;;;;17.17;2.60;;;;;;;;;;4987979;28;20049;-78
2024/02/06 14:25:13;;;;;;;13.18;2.65;;;;;;;;;;4977695;28;20046;-77
2024/02/06 14:27:40;;;;;;;17.23;3.45;;;;;;;;;;4980746;28;20061;-78
2024/02/06 14:30:07;;;;;;;13.63;2.50;;;;;;;;;;4994305;28;20088;-78